sensor_id;sensor_type;location;lat;lon;timestamp;P1;durP1;ratioP1;P2;durP2;ratioP2
15425;SDS011;7812;50.072;7.036;2023-08-06T00:00:04;5.90;;;2.77;;
15425;SDS011;7812;50.072;7.036;2023-08-06T00:02:30;3.90;;;3.40;;
15425;SDS011;7812;50.072;7.036;2023-08-06T00:04:56;3.13;;;2.40;;
15425;SDS011;7812;50.072;7.036;2023-08-06T00:07:21;5.60;;;2.70;;
15425;SDS011;7812;50.072;7.036;2023-08-06T00:09:47;2.53;;;2.33;;
15425;SDS011;7812;50.072;7.036;2023-08-06T00:12:13;3.30;;;2.50;;
15425;SDS011;7812;50.072;7.036;2023-08-06T00:14:38;3.53;;;2.40;;
15425;SDS011;7812;50.072;7.036;2023-08-06T00:17:04;3.43;;;2.70;;
15425;SDS011;7812;50.072;7.036;2023-08-06T00:19:30;2.73;;;2.53;;
15425;SDS011;7812;50.072;7.036;2023-08-06T00:21:57;3.83;;;2.60;;
15425;SDS011;7812;50.072;7.036;2023-08-06T00:24:22;3.90;;;3.00;;
15425;SDS011;7812;50.072;7.036;2023-08-06T00:26:48;5.13;;;2.90;;
15425;SDS011;7812;50.072;7.036;2023-08-06T00:29:14;3.67;;;3.17;;
15425;SDS011;7812;50.072;7.036;2023-08-06T00:31:39;2.73;;;2.53;;
15425;SDS011;7812;50.072;7.036;2023-08-06T00:34:05;3.83;;;2.50;;
15425;SDS011;7812;50.072;7.036;2023-08-06T00:36:30;3.53;;;2.80;;
15425;SDS011;7812;50.072;7.036;2023-08-06T00:38:56;4.07;;;2.70;;
15425;SDS011;7812;50.072;7.036;2023-08-06T00:41:22;5.23;;;2.87;;
15425;SDS011;7812;50.072;7.036;2023-08-06T00:43:47;3.83;;;2.73;;
15425;SDS011;7812;50.072;7.036;2023-08-06T00:46:13;3.70;;;2.80;;
15425;SDS011;7812;50.072;7.036;2023-08-06T00:48:39;3.63;;;2.90;;
15425;SDS011;7812;50.072;7.036;2023-08-06T00:51:06;2.87;;;2.40;;
15425;SDS011;7812;50.072;7.036;2023-08-06T00:53:34;4.07;;;2.40;;
15425;SDS011;7812;50.072;7.036;2023-08-06T00:56:00;2.60;;;2.40;;
15425;SDS011;7812;50.072;7.036;2023-08-06T00:58:26;3.73;;;2.63;;
15425;SDS011;7812;50.072;7.036;2023-08-06T01:00:52;4.50;;;2.37;;
15425;SDS011;7812;50.072;7.036;2023-08-06T01:03:18;3.73;;;2.50;;
15425;SDS011;7812;50.072;7.036;2023-08-06T01:05:43;2.67;;;2.10;;
15425;SDS011;7812;50.072;7.036;2023-08-06T01:08:15;5.47;;;2.90;;
15425;SDS011;7812;50.072;7.036;2023-08-06T01:16:17;3.90;;;2.60;;
15425;SDS011;7812;50.072;7.036;2023-08-06T01:18:43;4.00;;;2.40;;
15425;SDS011;7812;50.072;7.036;2023-08-06T01:21:14;3.87;;;2.90;;
15425;SDS011;7812;50.072;7.036;2023-08-06T01:23:43;2.77;;;2.53;;
15425;SDS011;7812;50.072;7.036;2023-08-06T01:31:36;3.00;;;2.50;;
15425;SDS011;7812;50.072;7.036;2023-08-06T01:34:05;5.13;;;2.60;;
15425;SDS011;7812;50.072;7.036;2023-08-06T01:36:34;3.17;;;2.50;;
15425;SDS011;7812;50.072;7.036;2023-08-06T01:39:01;5.60;;;2.50;;
15425;SDS011;7812;50.072;7.036;2023-08-06T01:41:27;3.53;;;2.20;;
15425;SDS011;7812;50.072;7.036;2023-08-06T01:43:52;4.30;;;2.60;;
15425;SDS011;7812;50.072;7.036;2023-08-06T01:49:02;2.67;;;2.27;;
15425;SDS011;7812;50.072;7.036;2023-08-06T01:51:28;3.83;;;2.60;;
15425;SDS011;7812;50.072;7.036;2023-08-06T01:53:53;4.07;;;2.20;;
15425;SDS011;7812;50.072;7.036;2023-08-06T01:56:19;3.50;;;2.20;;
15425;SDS011;7812;50.072;7.036;2023-08-06T01:58:45;3.50;;;2.30;;
15425;SDS011;7812;50.072;7.036;2023-08-06T02:01:10;4.37;;;2.57;;
15425;SDS011;7812;50.072;7.036;2023-08-06T02:03:36;2.93;;;2.40;;
15425;SDS011;7812;50.072;7.036;2023-08-06T02:06:02;2.87;;;2.20;;
15425;SDS011;7812;50.072;7.036;2023-08-06T02:08:32;4.10;;;3.00;;
15425;SDS011;7812;50.072;7.036;2023-08-06T02:10:58;2.63;;;2.37;;
15425;SDS011;7812;50.072;7.036;2023-08-06T02:13:24;2.50;;;2.00;;
15425;SDS011;7812;50.072;7.036;2023-08-06T02:15:50;3.03;;;2.17;;
15425;SDS011;7812;50.072;7.036;2023-08-06T02:18:15;4.93;;;2.53;;
15425;SDS011;7812;50.072;7.036;2023-08-06T02:20:41;3.80;;;2.60;;
15425;SDS011;7812;50.072;7.036;2023-08-06T02:23:08;2.90;;;2.23;;
15425;SDS011;7812;50.072;7.036;2023-08-06T02:25:34;3.00;;;2.40;;
15425;SDS011;7812;50.072;7.036;2023-08-06T02:28:00;5.00;;;2.10;;
15425;SDS011;7812;50.072;7.036;2023-08-06T02:30:25;2.90;;;2.23;;
15425;SDS011;7812;50.072;7.036;2023-08-06T02:32:51;3.73;;;2.00;;
15425;SDS011;7812;50.072;7.036;2023-08-06T02:35:17;4.17;;;2.30;;
15425;SDS011;7812;50.072;7.036;2023-08-06T02:37:42;2.90;;;1.90;;
15425;SDS011;7812;50.072;7.036;2023-08-06T02:40:08;2.20;;;1.40;;
15425;SDS011;7812;50.072;7.036;2023-08-06T02:42:34;1.97;;;1.30;;
15425;SDS011;7812;50.072;7.036;2023-08-06T02:44:59;1.30;;;1.20;;
15425;SDS011;7812;50.072;7.036;2023-08-06T02:47:25;1.87;;;1.30;;
15425;SDS011;7812;50.072;7.036;2023-08-06T02:49:51;1.70;;;1.23;;
15425;SDS011;7812;50.072;7.036;2023-08-06T02:52:16;3.80;;;1.37;;
15425;SDS011;7812;50.072;7.036;2023-08-06T02:54:42;3.03;;;1.03;;
15425;SDS011;7812;50.072;7.036;2023-08-06T02:57:08;1.97;;;0.90;;
15425;SDS011;7812;50.072;7.036;2023-08-06T02:59:33;0.77;;;0.77;;
15425;SDS011;7812;50.072;7.036;2023-08-06T03:01:59;1.33;;;0.93;;
15425;SDS011;7812;50.072;7.036;2023-08-06T03:04:25;1.10;;;1.00;;
15425;SDS011;7812;50.072;7.036;2023-08-06T03:06:50;0.80;;;0.70;;
15425;SDS011;7812;50.072;7.036;2023-08-06T03:09:19;0.70;;;0.70;;
15425;SDS011;7812;50.072;7.036;2023-08-06T03:11:44;1.37;;;0.90;;
15425;SDS011;7812;50.072;7.036;2023-08-06T03:14:10;2.40;;;0.73;;
15425;SDS011;7812;50.072;7.036;2023-08-06T03:16:36;1.07;;;0.60;;
15425;SDS011;7812;50.072;7.036;2023-08-06T03:19:01;0.90;;;0.70;;
15425;SDS011;7812;50.072;7.036;2023-08-06T03:21:27;1.17;;;0.53;;
15425;SDS011;7812;50.072;7.036;2023-08-06T03:23:52;0.60;;;0.60;;
15425;SDS011;7812;50.072;7.036;2023-08-06T03:26:18;0.57;;;0.57;;
15425;SDS011;7812;50.072;7.036;2023-08-06T03:28:44;0.57;;;0.50;;
15425;SDS011;7812;50.072;7.036;2023-08-06T03:31:09;0.40;;;0.40;;
15425;SDS011;7812;50.072;7.036;2023-08-06T03:33:35;1.00;;;0.60;;
15425;SDS011;7812;50.072;7.036;2023-08-06T03:36:01;1.60;;;0.50;;
15425;SDS011;7812;50.072;7.036;2023-08-06T03:38:27;0.40;;;0.40;;
15425;SDS011;7812;50.072;7.036;2023-08-06T03:40:52;0.43;;;0.43;;
15425;SDS011;7812;50.072;7.036;2023-08-06T03:43:18;0.63;;;0.50;;
15425;SDS011;7812;50.072;7.036;2023-08-06T03:45:44;0.50;;;0.50;;
15425;SDS011;7812;50.072;7.036;2023-08-06T03:48:10;0.90;;;0.60;;
15425;SDS011;7812;50.072;7.036;2023-08-06T03:50:35;0.83;;;0.50;;
15425;SDS011;7812;50.072;7.036;2023-08-06T03:53:01;0.83;;;0.57;;
15425;SDS011;7812;50.072;7.036;2023-08-06T03:55:27;0.57;;;0.50;;
15425;SDS011;7812;50.072;7.036;2023-08-06T03:57:53;1.40;;;0.50;;
15425;SDS011;7812;50.072;7.036;2023-08-06T04:00:19;0.67;;;0.50;;
15425;SDS011;7812;50.072;7.036;2023-08-06T04:02:44;0.50;;;0.50;;
15425;SDS011;7812;50.072;7.036;2023-08-06T04:05:10;0.50;;;0.50;;
15425;SDS011;7812;50.072;7.036;2023-08-06T04:07:37;1.03;;;0.60;;
15425;SDS011;7812;50.072;7.036;2023-08-06T04:10:03;0.60;;;0.60;;
15425;SDS011;7812;50.072;7.036;2023-08-06T04:12:30;0.40;;;0.40;;
15425;SDS011;7812;50.072;7.036;2023-08-06T04:15:00;0.40;;;0.40;;
15425;SDS011;7812;50.072;7.036;2023-08-06T04:17:26;0.50;;;0.40;;
15425;SDS011;7812;50.072;7.036;2023-08-06T04:19:53;1.00;;;0.40;;
15425;SDS011;7812;50.072;7.036;2023-08-06T04:22:20;0.67;;;0.53;;
15425;SDS011;7812;50.072;7.036;2023-08-06T04:24:46;0.40;;;0.40;;
15425;SDS011;7812;50.072;7.036;2023-08-06T04:27:13;0.50;;;0.40;;
15425;SDS011;7812;50.072;7.036;2023-08-06T04:29:41;0.53;;;0.50;;
15425;SDS011;7812;50.072;7.036;2023-08-06T04:32:08;0.60;;;0.60;;
15425;SDS011;7812;50.072;7.036;2023-08-06T04:34:34;0.70;;;0.67;;
15425;SDS011;7812;50.072;7.036;2023-08-06T04:37:01;1.60;;;0.50;;
15425;SDS011;7812;50.072;7.036;2023-08-06T04:39:29;0.50;;;0.40;;
15425;SDS011;7812;50.072;7.036;2023-08-06T04:41:55;0.50;;;0.50;;
15425;SDS011;7812;50.072;7.036;2023-08-06T04:44:25;0.50;;;0.50;;
15425;SDS011;7812;50.072;7.036;2023-08-06T04:46:51;1.27;;;0.70;;
15425;SDS011;7812;50.072;7.036;2023-08-06T04:49:17;0.87;;;0.57;;
15425;SDS011;7812;50.072;7.036;2023-08-06T04:51:45;0.60;;;0.60;;
15425;SDS011;7812;50.072;7.036;2023-08-06T04:54:10;2.20;;;0.50;;
15425;SDS011;7812;50.072;7.036;2023-08-06T04:56:36;1.63;;;0.53;;
15425;SDS011;7812;50.072;7.036;2023-08-06T04:59:01;0.67;;;0.50;;
15425;SDS011;7812;50.072;7.036;2023-08-06T05:01:27;0.63;;;0.63;;
15425;SDS011;7812;50.072;7.036;2023-08-06T05:03:53;0.50;;;0.50;;
15425;SDS011;7812;50.072;7.036;2023-08-06T05:06:19;0.53;;;0.50;;
15425;SDS011;7812;50.072;7.036;2023-08-06T05:08:44;1.13;;;0.67;;
15425;SDS011;7812;50.072;7.036;2023-08-06T05:11:10;0.60;;;0.60;;
15425;SDS011;7812;50.072;7.036;2023-08-06T05:13:36;0.90;;;0.70;;
15425;SDS011;7812;50.072;7.036;2023-08-06T05:16:01;0.90;;;0.60;;
15425;SDS011;7812;50.072;7.036;2023-08-06T05:18:27;0.67;;;0.67;;
15425;SDS011;7812;50.072;7.036;2023-08-06T05:20:53;1.03;;;0.73;;
15425;SDS011;7812;50.072;7.036;2023-08-06T05:23:19;0.67;;;0.67;;
15425;SDS011;7812;50.072;7.036;2023-08-06T05:25:45;1.90;;;0.80;;
15425;SDS011;7812;50.072;7.036;2023-08-06T05:28:10;1.00;;;0.70;;
15425;SDS011;7812;50.072;7.036;2023-08-06T05:30:42;0.67;;;0.60;;
15425;SDS011;7812;50.072;7.036;2023-08-06T05:33:08;0.63;;;0.63;;
15425;SDS011;7812;50.072;7.036;2023-08-06T05:35:33;1.53;;;0.73;;
15425;SDS011;7812;50.072;7.036;2023-08-06T05:37:59;2.00;;;0.80;;
15425;SDS011;7812;50.072;7.036;2023-08-06T05:40:25;1.93;;;0.90;;
15425;SDS011;7812;50.072;7.036;2023-08-06T05:42:54;1.13;;;0.57;;
15425;SDS011;7812;50.072;7.036;2023-08-06T05:45:20;0.97;;;0.60;;
15425;SDS011;7812;50.072;7.036;2023-08-06T05:47:47;0.50;;;0.50;;
15425;SDS011;7812;50.072;7.036;2023-08-06T05:50:13;1.30;;;0.60;;
15425;SDS011;7812;50.072;7.036;2023-08-06T05:52:39;1.20;;;0.80;;
15425;SDS011;7812;50.072;7.036;2023-08-06T05:55:04;1.67;;;0.90;;
15425;SDS011;7812;50.072;7.036;2023-08-06T05:57:30;0.77;;;0.70;;
15425;SDS011;7812;50.072;7.036;2023-08-06T05:59:56;0.83;;;0.60;;
15425;SDS011;7812;50.072;7.036;2023-08-06T06:02:22;0.70;;;0.57;;
15425;SDS011;7812;50.072;7.036;2023-08-06T06:04:47;1.03;;;0.70;;
15425;SDS011;7812;50.072;7.036;2023-08-06T06:07:13;0.63;;;0.63;;
15425;SDS011;7812;50.072;7.036;2023-08-06T06:09:39;0.80;;;0.70;;
15425;SDS011;7812;50.072;7.036;2023-08-06T06:12:05;0.80;;;0.70;;
15425;SDS011;7812;50.072;7.036;2023-08-06T06:14:31;0.60;;;0.60;;
15425;SDS011;7812;50.072;7.036;2023-08-06T06:16:57;0.60;;;0.60;;
15425;SDS011;7812;50.072;7.036;2023-08-06T06:19:25;2.03;;;0.70;;
15425;SDS011;7812;50.072;7.036;2023-08-06T06:21:50;0.90;;;0.80;;
15425;SDS011;7812;50.072;7.036;2023-08-06T06:24:16;0.60;;;0.60;;
15425;SDS011;7812;50.072;7.036;2023-08-06T06:26:42;1.07;;;0.90;;
15425;SDS011;7812;50.072;7.036;2023-08-06T06:29:08;0.97;;;0.83;;
15425;SDS011;7812;50.072;7.036;2023-08-06T06:31:33;0.83;;;0.60;;
15425;SDS011;7812;50.072;7.036;2023-08-06T06:33:59;1.53;;;0.80;;
15425;SDS011;7812;50.072;7.036;2023-08-06T06:36:25;2.77;;;1.30;;
15425;SDS011;7812;50.072;7.036;2023-08-06T06:38:50;1.53;;;0.80;;
15425;SDS011;7812;50.072;7.036;2023-08-06T06:41:16;1.20;;;0.77;;
15425;SDS011;7812;50.072;7.036;2023-08-06T06:43:41;1.40;;;0.90;;
15425;SDS011;7812;50.072;7.036;2023-08-06T06:46:07;0.73;;;0.70;;
15425;SDS011;7812;50.072;7.036;2023-08-06T06:48:33;0.73;;;0.73;;
15425;SDS011;7812;50.072;7.036;2023-08-06T06:50:58;1.67;;;0.93;;
15425;SDS011;7812;50.072;7.036;2023-08-06T06:53:24;0.90;;;0.83;;
15425;SDS011;7812;50.072;7.036;2023-08-06T06:55:54;1.00;;;1.00;;
15425;SDS011;7812;50.072;7.036;2023-08-06T06:58:20;1.20;;;0.67;;
15425;SDS011;7812;50.072;7.036;2023-08-06T07:00:48;0.70;;;0.70;;
15425;SDS011;7812;50.072;7.036;2023-08-06T07:03:15;1.47;;;0.90;;
15425;SDS011;7812;50.072;7.036;2023-08-06T07:05:41;1.47;;;0.87;;
15425;SDS011;7812;50.072;7.036;2023-08-06T07:08:08;0.60;;;0.60;;
15425;SDS011;7812;50.072;7.036;2023-08-06T07:10:33;1.37;;;0.60;;
15425;SDS011;7812;50.072;7.036;2023-08-06T07:12:59;0.77;;;0.70;;
15425;SDS011;7812;50.072;7.036;2023-08-06T07:15:25;0.50;;;0.50;;
15425;SDS011;7812;50.072;7.036;2023-08-06T07:17:51;0.60;;;0.60;;
15425;SDS011;7812;50.072;7.036;2023-08-06T07:20:16;1.00;;;0.80;;
15425;SDS011;7812;50.072;7.036;2023-08-06T07:22:43;0.60;;;0.60;;
15425;SDS011;7812;50.072;7.036;2023-08-06T07:25:09;0.53;;;0.53;;
15425;SDS011;7812;50.072;7.036;2023-08-06T07:27:35;2.33;;;0.60;;
15425;SDS011;7812;50.072;7.036;2023-08-06T07:30:00;0.63;;;0.60;;
15425;SDS011;7812;50.072;7.036;2023-08-06T07:32:26;0.70;;;0.70;;
15425;SDS011;7812;50.072;7.036;2023-08-06T07:34:53;0.60;;;0.60;;
15425;SDS011;7812;50.072;7.036;2023-08-06T07:37:22;0.60;;;0.60;;
15425;SDS011;7812;50.072;7.036;2023-08-06T07:39:48;0.80;;;0.60;;
15425;SDS011;7812;50.072;7.036;2023-08-06T07:42:13;1.13;;;0.90;;
15425;SDS011;7812;50.072;7.036;2023-08-06T07:44:39;0.73;;;0.70;;
15425;SDS011;7812;50.072;7.036;2023-08-06T07:47:05;0.70;;;0.70;;
15425;SDS011;7812;50.072;7.036;2023-08-06T07:49:30;1.20;;;0.90;;
15425;SDS011;7812;50.072;7.036;2023-08-06T07:51:56;0.80;;;0.80;;
15425;SDS011;7812;50.072;7.036;2023-08-06T07:54:22;0.77;;;0.50;;
15425;SDS011;7812;50.072;7.036;2023-08-06T07:56:49;0.70;;;0.70;;
15425;SDS011;7812;50.072;7.036;2023-08-06T07:59:15;0.70;;;0.60;;
15425;SDS011;7812;50.072;7.036;2023-08-06T08:01:40;0.60;;;0.60;;
15425;SDS011;7812;50.072;7.036;2023-08-06T08:04:06;0.53;;;0.53;;
15425;SDS011;7812;50.072;7.036;2023-08-06T08:06:33;2.00;;;0.67;;
15425;SDS011;7812;50.072;7.036;2023-08-06T08:08:59;0.80;;;0.60;;
15425;SDS011;7812;50.072;7.036;2023-08-06T08:11:25;1.40;;;0.40;;
15425;SDS011;7812;50.072;7.036;2023-08-06T08:13:51;1.53;;;0.40;;
15425;SDS011;7812;50.072;7.036;2023-08-06T08:16:17;1.50;;;0.57;;
15425;SDS011;7812;50.072;7.036;2023-08-06T08:18:42;2.43;;;0.87;;
15425;SDS011;7812;50.072;7.036;2023-08-06T08:21:08;0.87;;;0.50;;
15425;SDS011;7812;50.072;7.036;2023-08-06T08:23:34;2.07;;;0.80;;
15425;SDS011;7812;50.072;7.036;2023-08-06T08:25:59;0.40;;;0.40;;
15425;SDS011;7812;50.072;7.036;2023-08-06T08:28:27;0.70;;;0.50;;
15425;SDS011;7812;50.072;7.036;2023-08-06T08:30:52;0.80;;;0.60;;
15425;SDS011;7812;50.072;7.036;2023-08-06T08:33:18;0.57;;;0.50;;
15425;SDS011;7812;50.072;7.036;2023-08-06T08:35:45;2.63;;;0.60;;
15425;SDS011;7812;50.072;7.036;2023-08-06T08:38:11;0.57;;;0.40;;
15425;SDS011;7812;50.072;7.036;2023-08-06T08:40:37;1.17;;;0.70;;
15425;SDS011;7812;50.072;7.036;2023-08-06T08:43:10;0.47;;;0.47;;
15425;SDS011;7812;50.072;7.036;2023-08-06T08:45:39;0.67;;;0.67;;
15425;SDS011;7812;50.072;7.036;2023-08-06T08:48:05;0.70;;;0.60;;
15425;SDS011;7812;50.072;7.036;2023-08-06T08:50:31;0.53;;;0.50;;
15425;SDS011;7812;50.072;7.036;2023-08-06T08:52:57;0.40;;;0.40;;
15425;SDS011;7812;50.072;7.036;2023-08-06T08:55:23;0.30;;;0.30;;
15425;SDS011;7812;50.072;7.036;2023-08-06T08:57:49;0.43;;;0.30;;
15425;SDS011;7812;50.072;7.036;2023-08-06T09:00:15;1.10;;;0.40;;
15425;SDS011;7812;50.072;7.036;2023-08-06T09:02:41;0.57;;;0.40;;
15425;SDS011;7812;50.072;7.036;2023-08-06T09:05:07;0.40;;;0.40;;
15425;SDS011;7812;50.072;7.036;2023-08-06T09:07:44;0.30;;;0.30;;
15425;SDS011;7812;50.072;7.036;2023-08-06T09:10:13;0.40;;;0.40;;
15425;SDS011;7812;50.072;7.036;2023-08-06T09:12:46;0.40;;;0.40;;
15425;SDS011;7812;50.072;7.036;2023-08-06T09:15:13;0.27;;;0.27;;
15425;SDS011;7812;50.072;7.036;2023-08-06T09:17:39;0.37;;;0.37;;
15425;SDS011;7812;50.072;7.036;2023-08-06T09:20:13;0.53;;;0.30;;
15425;SDS011;7812;50.072;7.036;2023-08-06T09:22:40;1.60;;;0.30;;
15425;SDS011;7812;50.072;7.036;2023-08-06T09:25:06;0.40;;;0.40;;
15425;SDS011;7812;50.072;7.036;2023-08-06T09:27:36;0.30;;;0.30;;
15425;SDS011;7812;50.072;7.036;2023-08-06T09:30:05;0.30;;;0.23;;
15425;SDS011;7812;50.072;7.036;2023-08-06T09:32:48;0.30;;;0.30;;
15425;SDS011;7812;50.072;7.036;2023-08-06T09:35:19;0.30;;;0.30;;
15425;SDS011;7812;50.072;7.036;2023-08-06T09:37:45;0.30;;;0.30;;
15425;SDS011;7812;50.072;7.036;2023-08-06T09:43:06;0.40;;;0.40;;
15425;SDS011;7812;50.072;7.036;2023-08-06T09:45:32;0.40;;;0.40;;
15425;SDS011;7812;50.072;7.036;2023-08-06T09:48:03;0.30;;;0.30;;
15425;SDS011;7812;50.072;7.036;2023-08-06T09:50:33;0.30;;;0.30;;
15425;SDS011;7812;50.072;7.036;2023-08-06T09:53:01;0.50;;;0.40;;
15425;SDS011;7812;50.072;7.036;2023-08-06T09:55:28;0.40;;;0.40;;
15425;SDS011;7812;50.072;7.036;2023-08-06T09:57:54;0.83;;;0.50;;
15425;SDS011;7812;50.072;7.036;2023-08-06T10:00:21;0.40;;;0.30;;
15425;SDS011;7812;50.072;7.036;2023-08-06T10:02:48;0.63;;;0.60;;
15425;SDS011;7812;50.072;7.036;2023-08-06T10:05:16;0.50;;;0.50;;
15425;SDS011;7812;50.072;7.036;2023-08-06T10:07:43;0.77;;;0.60;;
15425;SDS011;7812;50.072;7.036;2023-08-06T10:10:11;0.83;;;0.60;;
15425;SDS011;7812;50.072;7.036;2023-08-06T10:12:40;0.60;;;0.60;;
15425;SDS011;7812;50.072;7.036;2023-08-06T10:15:13;1.90;;;0.57;;
15425;SDS011;7812;50.072;7.036;2023-08-06T10:17:41;0.50;;;0.50;;
15425;SDS011;7812;50.072;7.036;2023-08-06T10:20:09;1.13;;;0.60;;
15425;SDS011;7812;50.072;7.036;2023-08-06T10:22:35;0.83;;;0.83;;
15425;SDS011;7812;50.072;7.036;2023-08-06T10:25:01;0.70;;;0.60;;
15425;SDS011;7812;50.072;7.036;2023-08-06T10:33:06;1.43;;;0.70;;
15425;SDS011;7812;50.072;7.036;2023-08-06T10:40:35;0.80;;;0.73;;
15425;SDS011;7812;50.072;7.036;2023-08-06T10:43:02;1.00;;;0.80;;
15425;SDS011;7812;50.072;7.036;2023-08-06T10:45:28;0.83;;;0.70;;
15425;SDS011;7812;50.072;7.036;2023-08-06T10:47:55;1.63;;;0.90;;
15425;SDS011;7812;50.072;7.036;2023-08-06T10:50:22;0.80;;;0.70;;
15425;SDS011;7812;50.072;7.036;2023-08-06T10:52:48;1.10;;;1.00;;
15425;SDS011;7812;50.072;7.036;2023-08-06T10:55:21;1.10;;;1.00;;
15425;SDS011;7812;50.072;7.036;2023-08-06T10:57:51;0.70;;;0.70;;
15425;SDS011;7812;50.072;7.036;2023-08-06T11:00:17;1.47;;;1.00;;
15425;SDS011;7812;50.072;7.036;2023-08-06T11:02:43;2.40;;;1.27;;
15425;SDS011;7812;50.072;7.036;2023-08-06T11:05:09;1.03;;;0.90;;
15425;SDS011;7812;50.072;7.036;2023-08-06T11:07:36;1.77;;;1.00;;
15425;SDS011;7812;50.072;7.036;2023-08-06T11:10:05;2.07;;;1.30;;
15425;SDS011;7812;50.072;7.036;2023-08-06T11:12:35;1.83;;;1.10;;
15425;SDS011;7812;50.072;7.036;2023-08-06T11:15:02;1.70;;;1.20;;
15425;SDS011;7812;50.072;7.036;2023-08-06T11:17:28;2.43;;;1.20;;
15425;SDS011;7812;50.072;7.036;2023-08-06T11:19:55;1.20;;;1.00;;
15425;SDS011;7812;50.072;7.036;2023-08-06T11:22:21;1.13;;;1.03;;
15425;SDS011;7812;50.072;7.036;2023-08-06T11:24:50;1.20;;;1.07;;
15425;SDS011;7812;50.072;7.036;2023-08-06T11:27:16;1.07;;;0.90;;
15425;SDS011;7812;50.072;7.036;2023-08-06T11:29:42;0.97;;;0.90;;
15425;SDS011;7812;50.072;7.036;2023-08-06T11:32:09;1.10;;;1.00;;
15425;SDS011;7812;50.072;7.036;2023-08-06T11:34:35;2.17;;;1.10;;
15425;SDS011;7812;50.072;7.036;2023-08-06T11:37:05;2.30;;;1.03;;
15425;SDS011;7812;50.072;7.036;2023-08-06T11:39:35;2.63;;;1.30;;
15425;SDS011;7812;50.072;7.036;2023-08-06T11:42:05;1.37;;;1.13;;
15425;SDS011;7812;50.072;7.036;2023-08-06T11:44:32;2.63;;;1.20;;
15425;SDS011;7812;50.072;7.036;2023-08-06T11:47:00;2.80;;;1.27;;
15425;SDS011;7812;50.072;7.036;2023-08-06T11:50:01;2.97;;;1.30;;
15425;SDS011;7812;50.072;7.036;2023-08-06T11:52:20;1.70;;;1.30;;
15425;SDS011;7812;50.072;7.036;2023-08-06T11:54:59;2.83;;;1.20;;
15425;SDS011;7812;50.072;7.036;2023-08-06T11:57:25;2.40;;;1.30;;
15425;SDS011;7812;50.072;7.036;2023-08-06T11:59:50;2.93;;;1.33;;
15425;SDS011;7812;50.072;7.036;2023-08-06T12:02:16;3.60;;;1.77;;
15425;SDS011;7812;50.072;7.036;2023-08-06T12:07:32;2.37;;;1.10;;
15425;SDS011;7812;50.072;7.036;2023-08-06T12:10:02;3.03;;;1.40;;
15425;SDS011;7812;50.072;7.036;2023-08-06T12:12:27;1.93;;;1.10;;
15425;SDS011;7812;50.072;7.036;2023-08-06T12:14:54;1.70;;;1.00;;
15425;SDS011;7812;50.072;7.036;2023-08-06T12:17:19;2.37;;;1.17;;
15425;SDS011;7812;50.072;7.036;2023-08-06T12:19:45;1.37;;;1.10;;
15425;SDS011;7812;50.072;7.036;2023-08-06T12:22:12;1.53;;;1.07;;
15425;SDS011;7812;50.072;7.036;2023-08-06T12:24:39;1.63;;;1.10;;
15425;SDS011;7812;50.072;7.036;2023-08-06T12:27:09;1.63;;;1.03;;
15425;SDS011;7812;50.072;7.036;2023-08-06T12:29:35;1.60;;;0.80;;
15425;SDS011;7812;50.072;7.036;2023-08-06T12:32:02;1.50;;;0.90;;
15425;SDS011;7812;50.072;7.036;2023-08-06T12:34:29;2.50;;;1.17;;
15425;SDS011;7812;50.072;7.036;2023-08-06T12:36:55;1.60;;;1.00;;
15425;SDS011;7812;50.072;7.036;2023-08-06T12:39:21;2.70;;;1.17;;
15425;SDS011;7812;50.072;7.036;2023-08-06T12:41:46;1.97;;;1.20;;
15425;SDS011;7812;50.072;7.036;2023-08-06T12:44:12;2.03;;;1.07;;
15425;SDS011;7812;50.072;7.036;2023-08-06T12:46:37;2.77;;;1.13;;
15425;SDS011;7812;50.072;7.036;2023-08-06T12:49:03;3.03;;;0.90;;
15425;SDS011;7812;50.072;7.036;2023-08-06T12:51:29;1.67;;;1.00;;
15425;SDS011;7812;50.072;7.036;2023-08-06T12:53:55;1.93;;;1.10;;
15425;SDS011;7812;50.072;7.036;2023-08-06T12:56:21;1.57;;;0.90;;
15425;SDS011;7812;50.072;7.036;2023-08-06T12:58:47;2.30;;;0.90;;
15425;SDS011;7812;50.072;7.036;2023-08-06T13:01:12;1.37;;;0.80;;
15425;SDS011;7812;50.072;7.036;2023-08-06T13:03:38;4.23;;;1.07;;
15425;SDS011;7812;50.072;7.036;2023-08-06T13:06:04;1.67;;;0.73;;
15425;SDS011;7812;50.072;7.036;2023-08-06T13:08:29;1.00;;;0.80;;
15425;SDS011;7812;50.072;7.036;2023-08-06T13:10:55;1.10;;;1.00;;
15425;SDS011;7812;50.072;7.036;2023-08-06T13:13:20;1.77;;;0.83;;
15425;SDS011;7812;50.072;7.036;2023-08-06T13:15:46;1.30;;;0.87;;
15425;SDS011;7812;50.072;7.036;2023-08-06T13:18:12;1.13;;;0.70;;
15425;SDS011;7812;50.072;7.036;2023-08-06T13:20:38;1.53;;;0.90;;
15425;SDS011;7812;50.072;7.036;2023-08-06T13:23:06;1.23;;;0.67;;
15425;SDS011;7812;50.072;7.036;2023-08-06T13:25:32;1.33;;;0.80;;
15425;SDS011;7812;50.072;7.036;2023-08-06T13:28:02;0.40;;;0.40;;
15425;SDS011;7812;50.072;7.036;2023-08-06T13:30:28;1.33;;;0.83;;
15425;SDS011;7812;50.072;7.036;2023-08-06T13:32:54;2.07;;;0.60;;
15425;SDS011;7812;50.072;7.036;2023-08-06T13:35:21;1.83;;;0.60;;
15425;SDS011;7812;50.072;7.036;2023-08-06T13:37:48;1.03;;;0.70;;
15425;SDS011;7812;50.072;7.036;2023-08-06T13:40:14;0.60;;;0.50;;
15425;SDS011;7812;50.072;7.036;2023-08-06T13:42:40;0.50;;;0.50;;
15425;SDS011;7812;50.072;7.036;2023-08-06T13:45:06;0.50;;;0.50;;
15425;SDS011;7812;50.072;7.036;2023-08-06T13:47:32;0.70;;;0.60;;
15425;SDS011;7812;50.072;7.036;2023-08-06T13:49:57;0.40;;;0.40;;
15425;SDS011;7812;50.072;7.036;2023-08-06T13:52:25;1.93;;;0.53;;
15425;SDS011;7812;50.072;7.036;2023-08-06T13:54:51;1.90;;;0.60;;
15425;SDS011;7812;50.072;7.036;2023-08-06T13:57:16;0.70;;;0.40;;
15425;SDS011;7812;50.072;7.036;2023-08-06T13:59:42;0.47;;;0.47;;
15425;SDS011;7812;50.072;7.036;2023-08-06T14:02:09;0.50;;;0.43;;
15425;SDS011;7812;50.072;7.036;2023-08-06T14:04:35;0.50;;;0.50;;
15425;SDS011;7812;50.072;7.036;2023-08-06T14:07:02;0.60;;;0.60;;
15425;SDS011;7812;50.072;7.036;2023-08-06T14:09:28;0.73;;;0.50;;
15425;SDS011;7812;50.072;7.036;2023-08-06T14:11:54;0.67;;;0.60;;
15425;SDS011;7812;50.072;7.036;2023-08-06T14:14:19;0.50;;;0.50;;
15425;SDS011;7812;50.072;7.036;2023-08-06T14:16:51;1.00;;;0.63;;
15425;SDS011;7812;50.072;7.036;2023-08-06T14:19:17;0.50;;;0.50;;
15425;SDS011;7812;50.072;7.036;2023-08-06T14:21:42;0.93;;;0.57;;
15425;SDS011;7812;50.072;7.036;2023-08-06T14:24:08;1.10;;;0.60;;
15425;SDS011;7812;50.072;7.036;2023-08-06T14:26:34;0.63;;;0.50;;
15425;SDS011;7812;50.072;7.036;2023-08-06T14:29:00;0.57;;;0.50;;
15425;SDS011;7812;50.072;7.036;2023-08-06T14:31:26;0.50;;;0.50;;
15425;SDS011;7812;50.072;7.036;2023-08-06T14:33:51;0.97;;;0.67;;
15425;SDS011;7812;50.072;7.036;2023-08-06T14:36:17;0.50;;;0.50;;
15425;SDS011;7812;50.072;7.036;2023-08-06T14:38:43;1.10;;;0.80;;
15425;SDS011;7812;50.072;7.036;2023-08-06T14:41:09;0.77;;;0.63;;
15425;SDS011;7812;50.072;7.036;2023-08-06T14:43:35;1.80;;;0.87;;
15425;SDS011;7812;50.072;7.036;2023-08-06T14:46:00;0.80;;;0.70;;
15425;SDS011;7812;50.072;7.036;2023-08-06T14:48:26;0.87;;;0.73;;
15425;SDS011;7812;50.072;7.036;2023-08-06T14:50:52;2.07;;;0.70;;
15425;SDS011;7812;50.072;7.036;2023-08-06T14:53:18;1.83;;;0.70;;
15425;SDS011;7812;50.072;7.036;2023-08-06T14:55:44;1.53;;;0.77;;
15425;SDS011;7812;50.072;7.036;2023-08-06T14:58:09;0.60;;;0.60;;
15425;SDS011;7812;50.072;7.036;2023-08-06T15:00:35;1.10;;;0.60;;
15425;SDS011;7812;50.072;7.036;2023-08-06T15:03:01;1.33;;;0.60;;
15425;SDS011;7812;50.072;7.036;2023-08-06T15:05:26;0.70;;;0.60;;
15425;SDS011;7812;50.072;7.036;2023-08-06T15:07:52;1.40;;;0.60;;
15425;SDS011;7812;50.072;7.036;2023-08-06T15:10:18;1.67;;;1.00;;
15425;SDS011;7812;50.072;7.036;2023-08-06T15:12:43;0.77;;;0.60;;
15425;SDS011;7812;50.072;7.036;2023-08-06T15:15:10;0.70;;;0.70;;
15425;SDS011;7812;50.072;7.036;2023-08-06T15:17:36;2.63;;;0.87;;
15425;SDS011;7812;50.072;7.036;2023-08-06T15:20:02;1.23;;;0.83;;
15425;SDS011;7812;50.072;7.036;2023-08-06T15:22:28;2.43;;;0.87;;
15425;SDS011;7812;50.072;7.036;2023-08-06T15:24:57;0.87;;;0.70;;